Terminal Aerodrome Forecast
Issued by NWS Birmingham, AL

Home | Current Version | Previous Version | Text Only | Print | Product List | Glossary On
Versions: 1 2 3 4 5 6 7 8 9 10 11 12 13 14 15 16 17 18 19 20 21
000
FTUS44 KBMX 190046 AAA
TAFBHM
TAF AMD
KBHM 190046Z 1901/1924 20005KT P6SM BKN035
     FM190200 12005KT P6SM BKN025
     FM190600 16008KT 5SM SHRA VCTS OVC007CB
     FM191300 17008KT P6SM OVC007
     FM191600 22009KT P6SM OVC015
     FM192000 23009KT P6SM SCT050 OVC250=

USA.gov is the U.S. government's official web portal to all federal, state and local government web resources and services.